sensor_id;sensor_type;location;lat;lon;timestamp;temperature;humidity
11577;DHT22;5844;51.496;6.788;2024-03-29T00:02:06;9.40;1.00
11577;DHT22;5844;51.496;6.788;2024-03-29T00:04:32;9.50;1.00
11577;DHT22;5844;51.496;6.788;2024-03-29T00:06:57;9.60;1.00
11577;DHT22;5844;51.496;6.788;2024-03-29T00:09:23;9.50;1.00
11577;DHT22;5844;51.496;6.788;2024-03-29T00:11:48;9.60;1.00
11577;DHT22;5844;51.496;6.788;2024-03-29T00:14:15;9.50;1.00
11577;DHT22;5844;51.496;6.788;2024-03-29T00:16:41;9.50;1.00
11577;DHT22;5844;51.496;6.788;2024-03-29T00:19:06;9.40;1.00
11577;DHT22;5844;51.496;6.788;2024-03-29T00:21:32;9.50;1.00
11577;DHT22;5844;51.496;6.788;2024-03-29T00:23:58;9.50;1.00
11577;DHT22;5844;51.496;6.788;2024-03-29T00:26:23;9.60;1.00
11577;DHT22;5844;51.496;6.788;2024-03-29T00:28:49;9.60;1.00
11577;DHT22;5844;51.496;6.788;2024-03-29T00:31:15;9.60;1.00
11577;DHT22;5844;51.496;6.788;2024-03-29T00:33:40;9.70;1.00
11577;DHT22;5844;51.496;6.788;2024-03-29T00:36:06;9.70;1.00
11577;DHT22;5844;51.496;6.788;2024-03-29T00:38:32;9.60;1.00
11577;DHT22;5844;51.496;6.788;2024-03-29T00:40:58;9.70;1.00
11577;DHT22;5844;51.496;6.788;2024-03-29T00:43:23;9.80;1.00
11577;DHT22;5844;51.496;6.788;2024-03-29T00:45:49;9.70;1.00
11577;DHT22;5844;51.496;6.788;2024-03-29T00:48:14;9.70;1.00
11577;DHT22;5844;51.496;6.788;2024-03-29T00:50:43;9.70;1.00
11577;DHT22;5844;51.496;6.788;2024-03-29T00:53:08;9.70;1.00
11577;DHT22;5844;51.496;6.788;2024-03-29T00:55:34;9.60;1.00
11577;DHT22;5844;51.496;6.788;2024-03-29T00:58:00;10.20;1.00
11577;DHT22;5844;51.496;6.788;2024-03-29T01:00:25;9.60;1.00
11577;DHT22;5844;51.496;6.788;2024-03-29T01:02:52;9.50;1.00
11577;DHT22;5844;51.496;6.788;2024-03-29T01:05:18;9.50;1.00
11577;DHT22;5844;51.496;6.788;2024-03-29T01:07:44;9.50;1.00
11577;DHT22;5844;51.496;6.788;2024-03-29T01:10:09;9.40;1.00
11577;DHT22;5844;51.496;6.788;2024-03-29T01:12:36;9.40;1.00
11577;DHT22;5844;51.496;6.788;2024-03-29T01:15:02;9.40;1.00
11577;DHT22;5844;51.496;6.788;2024-03-29T01:17:28;9.40;1.00
11577;DHT22;5844;51.496;6.788;2024-03-29T01:19:54;9.50;1.00
11577;DHT22;5844;51.496;6.788;2024-03-29T01:22:19;9.50;1.00
11577;DHT22;5844;51.496;6.788;2024-03-29T01:24:45;9.50;1.00
11577;DHT22;5844;51.496;6.788;2024-03-29T01:27:11;9.50;1.00
11577;DHT22;5844;51.496;6.788;2024-03-29T01:29:36;9.50;1.00
11577;DHT22;5844;51.496;6.788;2024-03-29T01:32:03;9.50;1.00
11577;DHT22;5844;51.496;6.788;2024-03-29T01:34:28;9.50;1.00
11577;DHT22;5844;51.496;6.788;2024-03-29T01:36:54;9.90;1.00
11577;DHT22;5844;51.496;6.788;2024-03-29T01:39:20;9.60;1.00
11577;DHT22;5844;51.496;6.788;2024-03-29T01:41:50;9.60;1.00
11577;DHT22;5844;51.496;6.788;2024-03-29T01:44:15;10.00;1.00
11577;DHT22;5844;51.496;6.788;2024-03-29T01:46:41;9.60;1.00
11577;DHT22;5844;51.496;6.788;2024-03-29T01:49:07;9.60;1.00
11577;DHT22;5844;51.496;6.788;2024-03-29T01:51:37;10.10;1.00
11577;DHT22;5844;51.496;6.788;2024-03-29T01:54:04;9.70;1.00
11577;DHT22;5844;51.496;6.788;2024-03-29T01:56:30;9.70;1.00
11577;DHT22;5844;51.496;6.788;2024-03-29T01:58:57;10.80;1.00
11577;DHT22;5844;51.496;6.788;2024-03-29T02:01:24;9.80;1.00
11577;DHT22;5844;51.496;6.788;2024-03-29T02:03:51;9.90;1.00
11577;DHT22;5844;51.496;6.788;2024-03-29T02:06:18;9.90;1.00
11577;DHT22;5844;51.496;6.788;2024-03-29T02:08:44;10.00;1.00
11577;DHT22;5844;51.496;6.788;2024-03-29T02:11:10;10.00;1.00
11577;DHT22;5844;51.496;6.788;2024-03-29T02:13:35;10.00;1.00
11577;DHT22;5844;51.496;6.788;2024-03-29T02:16:02;10.00;1.00
11577;DHT22;5844;51.496;6.788;2024-03-29T02:18:28;10.00;1.00
11577;DHT22;5844;51.496;6.788;2024-03-29T02:20:53;9.00;1.00
11577;DHT22;5844;51.496;6.788;2024-03-29T02:23:26;9.90;1.00
11577;DHT22;5844;51.496;6.788;2024-03-29T02:25:53;10.10;1.00
11577;DHT22;5844;51.496;6.788;2024-03-29T02:28:20;10.00;1.00
11577;DHT22;5844;51.496;6.788;2024-03-29T02:30:47;10.00;1.00
11577;DHT22;5844;51.496;6.788;2024-03-29T02:33:13;10.00;1.00
11577;DHT22;5844;51.496;6.788;2024-03-29T02:35:38;10.10;1.00
11577;DHT22;5844;51.496;6.788;2024-03-29T02:38:04;10.10;1.00
11577;DHT22;5844;51.496;6.788;2024-03-29T02:40:29;10.10;1.00
11577;DHT22;5844;51.496;6.788;2024-03-29T02:42:55;10.20;1.00
11577;DHT22;5844;51.496;6.788;2024-03-29T02:45:21;10.20;1.00
11577;DHT22;5844;51.496;6.788;2024-03-29T02:47:46;10.30;1.00
11577;DHT22;5844;51.496;6.788;2024-03-29T02:50:13;10.30;1.00
11577;DHT22;5844;51.496;6.788;2024-03-29T02:52:39;10.30;1.00
11577;DHT22;5844;51.496;6.788;2024-03-29T02:55:07;10.40;1.00
11577;DHT22;5844;51.496;6.788;2024-03-29T02:57:32;10.40;1.00
11577;DHT22;5844;51.496;6.788;2024-03-29T02:59:58;10.50;1.00
11577;DHT22;5844;51.496;6.788;2024-03-29T03:02:23;10.50;1.00
11577;DHT22;5844;51.496;6.788;2024-03-29T03:04:49;10.50;1.00
11577;DHT22;5844;51.496;6.788;2024-03-29T03:07:15;10.50;1.00
11577;DHT22;5844;51.496;6.788;2024-03-29T03:09:58;10.40;1.00
11577;DHT22;5844;51.496;6.788;2024-03-29T03:12:43;10.30;1.00
11577;DHT22;5844;51.496;6.788;2024-03-29T03:15:09;10.20;1.00
11577;DHT22;5844;51.496;6.788;2024-03-29T03:17:34;10.20;1.00
11577;DHT22;5844;51.496;6.788;2024-03-29T03:20:01;10.10;1.00
11577;DHT22;5844;51.496;6.788;2024-03-29T03:22:29;10.00;1.00
11577;DHT22;5844;51.496;6.788;2024-03-29T03:24:55;10.70;1.00
11577;DHT22;5844;51.496;6.788;2024-03-29T03:27:20;8.70;1.00
11577;DHT22;5844;51.496;6.788;2024-03-29T03:29:48;9.70;1.00
11577;DHT22;5844;51.496;6.788;2024-03-29T03:32:13;9.70;1.00
11577;DHT22;5844;51.496;6.788;2024-03-29T03:34:39;9.70;1.00
11577;DHT22;5844;51.496;6.788;2024-03-29T03:37:05;9.70;1.00
11577;DHT22;5844;51.496;6.788;2024-03-29T03:39:30;9.60;1.00
11577;DHT22;5844;51.496;6.788;2024-03-29T03:41:56;9.50;1.00
11577;DHT22;5844;51.496;6.788;2024-03-29T03:44:21;9.50;1.00
11577;DHT22;5844;51.496;6.788;2024-03-29T03:46:50;9.60;1.00
11577;DHT22;5844;51.496;6.788;2024-03-29T03:49:16;9.70;1.00
11577;DHT22;5844;51.496;6.788;2024-03-29T03:51:41;9.60;1.00
11577;DHT22;5844;51.496;6.788;2024-03-29T03:54:07;9.60;1.00
11577;DHT22;5844;51.496;6.788;2024-03-29T03:56:32;9.60;1.00
11577;DHT22;5844;51.496;6.788;2024-03-29T03:58:58;9.50;1.00
11577;DHT22;5844;51.496;6.788;2024-03-29T04:01:23;9.50;1.00
11577;DHT22;5844;51.496;6.788;2024-03-29T04:03:49;9.50;1.00
11577;DHT22;5844;51.496;6.788;2024-03-29T04:06:14;9.60;1.00
11577;DHT22;5844;51.496;6.788;2024-03-29T04:08:44;9.50;1.00
11577;DHT22;5844;51.496;6.788;2024-03-29T04:11:10;9.50;1.00
11577;DHT22;5844;51.496;6.788;2024-03-29T04:13:35;9.40;1.00
11577;DHT22;5844;51.496;6.788;2024-03-29T04:16:04;9.30;1.00
11577;DHT22;5844;51.496;6.788;2024-03-29T04:18:30;9.20;1.00
11577;DHT22;5844;51.496;6.788;2024-03-29T04:21:03;9.10;1.00
11577;DHT22;5844;51.496;6.788;2024-03-29T04:23:29;8.90;1.00
11577;DHT22;5844;51.496;6.788;2024-03-29T04:25:56;8.80;1.00
11577;DHT22;5844;51.496;6.788;2024-03-29T04:28:22;8.70;1.00
11577;DHT22;5844;51.496;6.788;2024-03-29T04:30:59;8.60;1.00
11577;DHT22;5844;51.496;6.788;2024-03-29T04:33:26;8.50;1.00
11577;DHT22;5844;51.496;6.788;2024-03-29T04:35:57;8.40;1.00
11577;DHT22;5844;51.496;6.788;2024-03-29T04:38:23;8.40;1.00
11577;DHT22;5844;51.496;6.788;2024-03-29T04:40:50;8.30;1.00
11577;DHT22;5844;51.496;6.788;2024-03-29T04:43:16;8.60;1.00
11577;DHT22;5844;51.496;6.788;2024-03-29T04:45:43;8.30;1.00
11577;DHT22;5844;51.496;6.788;2024-03-29T04:48:09;8.20;1.00
11577;DHT22;5844;51.496;6.788;2024-03-29T04:50:35;8.20;1.00
11577;DHT22;5844;51.496;6.788;2024-03-29T04:53:01;8.60;1.00
11577;DHT22;5844;51.496;6.788;2024-03-29T04:55:26;8.20;1.00
11577;DHT22;5844;51.496;6.788;2024-03-29T04:57:52;8.10;1.00
11577;DHT22;5844;51.496;6.788;2024-03-29T05:00:18;8.10;1.00
11577;DHT22;5844;51.496;6.788;2024-03-29T05:02:43;8.10;1.00
11577;DHT22;5844;51.496;6.788;2024-03-29T05:05:09;8.10;1.00
11577;DHT22;5844;51.496;6.788;2024-03-29T05:07:34;8.10;1.00
11577;DHT22;5844;51.496;6.788;2024-03-29T05:10:00;8.10;1.00
11577;DHT22;5844;51.496;6.788;2024-03-29T05:12:32;8.10;1.00
11577;DHT22;5844;51.496;6.788;2024-03-29T05:14:57;8.10;1.00
11577;DHT22;5844;51.496;6.788;2024-03-29T05:17:23;8.10;1.00
11577;DHT22;5844;51.496;6.788;2024-03-29T05:19:52;8.10;1.00
11577;DHT22;5844;51.496;6.788;2024-03-29T05:22:17;8.00;1.00
11577;DHT22;5844;51.496;6.788;2024-03-29T05:24:44;8.00;1.00
11577;DHT22;5844;51.496;6.788;2024-03-29T05:27:10;8.00;1.00
11577;DHT22;5844;51.496;6.788;2024-03-29T05:29:36;8.00;1.00
11577;DHT22;5844;51.496;6.788;2024-03-29T05:32:02;8.00;1.00
11577;DHT22;5844;51.496;6.788;2024-03-29T05:34:27;8.00;1.00
11577;DHT22;5844;51.496;6.788;2024-03-29T05:36:53;8.00;1.00
11577;DHT22;5844;51.496;6.788;2024-03-29T05:39:18;8.00;1.00
11577;DHT22;5844;51.496;6.788;2024-03-29T05:41:45;8.00;1.00
11577;DHT22;5844;51.496;6.788;2024-03-29T05:44:10;8.10;1.00
11577;DHT22;5844;51.496;6.788;2024-03-29T05:46:36;8.10;1.00
11577;DHT22;5844;51.496;6.788;2024-03-29T05:49:03;8.10;1.00
11577;DHT22;5844;51.496;6.788;2024-03-29T05:51:28;8.00;1.00
11577;DHT22;5844;51.496;6.788;2024-03-29T05:53:54;8.00;1.00
11577;DHT22;5844;51.496;6.788;2024-03-29T05:56:21;8.00;1.00
11577;DHT22;5844;51.496;6.788;2024-03-29T05:58:47;8.00;1.00
11577;DHT22;5844;51.496;6.788;2024-03-29T06:01:13;8.00;1.00
11577;DHT22;5844;51.496;6.788;2024-03-29T06:03:38;8.00;1.00
11577;DHT22;5844;51.496;6.788;2024-03-29T06:06:04;8.60;1.00
11577;DHT22;5844;51.496;6.788;2024-03-29T06:08:30;8.00;1.00
11577;DHT22;5844;51.496;6.788;2024-03-29T06:10:56;8.00;1.00
11577;DHT22;5844;51.496;6.788;2024-03-29T06:13:22;8.00;1.00
11577;DHT22;5844;51.496;6.788;2024-03-29T06:16:07;8.00;1.00
11577;DHT22;5844;51.496;6.788;2024-03-29T06:18:51;8.10;1.00
11577;DHT22;5844;51.496;6.788;2024-03-29T06:21:16;8.00;1.00
11577;DHT22;5844;51.496;6.788;2024-03-29T06:23:42;8.10;1.00
11577;DHT22;5844;51.496;6.788;2024-03-29T06:26:07;8.10;1.00
11577;DHT22;5844;51.496;6.788;2024-03-29T06:28:33;8.10;1.00
11577;DHT22;5844;51.496;6.788;2024-03-29T06:31:00;8.40;1.00
11577;DHT22;5844;51.496;6.788;2024-03-29T06:33:27;8.20;1.00
11577;DHT22;5844;51.496;6.788;2024-03-29T06:35:56;8.30;1.00
11577;DHT22;5844;51.496;6.788;2024-03-29T06:38:22;8.30;1.00
11577;DHT22;5844;51.496;6.788;2024-03-29T06:40:47;8.40;1.00
11577;DHT22;5844;51.496;6.788;2024-03-29T06:43:13;8.40;1.00
11577;DHT22;5844;51.496;6.788;2024-03-29T06:45:42;8.40;1.00
11577;DHT22;5844;51.496;6.788;2024-03-29T06:48:10;8.40;1.00
11577;DHT22;5844;51.496;6.788;2024-03-29T06:50:37;8.40;1.00
11577;DHT22;5844;51.496;6.788;2024-03-29T06:53:03;8.40;1.00
11577;DHT22;5844;51.496;6.788;2024-03-29T06:55:30;8.40;1.00
11577;DHT22;5844;51.496;6.788;2024-03-29T06:57:56;8.30;1.00
11577;DHT22;5844;51.496;6.788;2024-03-29T07:00:22;8.20;1.00
11577;DHT22;5844;51.496;6.788;2024-03-29T07:02:47;8.20;1.00
11577;DHT22;5844;51.496;6.788;2024-03-29T07:05:13;8.20;1.00
11577;DHT22;5844;51.496;6.788;2024-03-29T07:07:38;8.20;1.00
11577;DHT22;5844;51.496;6.788;2024-03-29T07:10:06;8.20;1.00
11577;DHT22;5844;51.496;6.788;2024-03-29T07:12:33;8.20;1.00
11577;DHT22;5844;51.496;6.788;2024-03-29T07:14:59;8.20;1.00
11577;DHT22;5844;51.496;6.788;2024-03-29T07:17:26;8.20;1.00
11577;DHT22;5844;51.496;6.788;2024-03-29T07:19:52;8.20;1.00
11577;DHT22;5844;51.496;6.788;2024-03-29T07:22:17;8.30;1.00
11577;DHT22;5844;51.496;6.788;2024-03-29T07:24:43;8.30;1.00
11577;DHT22;5844;51.496;6.788;2024-03-29T07:27:08;8.30;1.00
11577;DHT22;5844;51.496;6.788;2024-03-29T07:29:34;8.30;1.00
11577;DHT22;5844;51.496;6.788;2024-03-29T07:32:00;8.40;1.00
11577;DHT22;5844;51.496;6.788;2024-03-29T07:34:26;8.40;1.00
11577;DHT22;5844;51.496;6.788;2024-03-29T07:36:51;8.40;1.00
11577;DHT22;5844;51.496;6.788;2024-03-29T07:39:17;8.40;1.00
11577;DHT22;5844;51.496;6.788;2024-03-29T07:41:43;8.50;1.00
11577;DHT22;5844;51.496;6.788;2024-03-29T07:44:08;8.60;1.00
11577;DHT22;5844;51.496;6.788;2024-03-29T07:46:35;8.60;1.00
11577;DHT22;5844;51.496;6.788;2024-03-29T07:49:02;8.70;1.00
11577;DHT22;5844;51.496;6.788;2024-03-29T07:51:28;8.80;1.00
11577;DHT22;5844;51.496;6.788;2024-03-29T07:53:54;8.80;1.00
11577;DHT22;5844;51.496;6.788;2024-03-29T07:56:20;9.00;1.00
11577;DHT22;5844;51.496;6.788;2024-03-29T07:58:50;9.00;1.00
11577;DHT22;5844;51.496;6.788;2024-03-29T08:01:23;9.00;1.00
11577;DHT22;5844;51.496;6.788;2024-03-29T08:03:52;9.10;1.00
11577;DHT22;5844;51.496;6.788;2024-03-29T08:06:21;9.20;1.00
11577;DHT22;5844;51.496;6.788;2024-03-29T08:08:51;9.30;1.00
11577;DHT22;5844;51.496;6.788;2024-03-29T08:11:21;9.40;1.00
11577;DHT22;5844;51.496;6.788;2024-03-29T08:13:48;9.40;1.00
11577;DHT22;5844;51.496;6.788;2024-03-29T08:16:13;9.50;1.00
11577;DHT22;5844;51.496;6.788;2024-03-29T08:18:40;9.60;1.00
11577;DHT22;5844;51.496;6.788;2024-03-29T08:21:06;9.70;1.00
11577;DHT22;5844;51.496;6.788;2024-03-29T08:23:37;9.90;1.00
11577;DHT22;5844;51.496;6.788;2024-03-29T08:26:04;10.10;1.00
11577;DHT22;5844;51.496;6.788;2024-03-29T08:28:29;10.40;1.00
11577;DHT22;5844;51.496;6.788;2024-03-29T08:31:02;10.80;1.00
11577;DHT22;5844;51.496;6.788;2024-03-29T08:33:28;10.60;1.00
11577;DHT22;5844;51.496;6.788;2024-03-29T08:35:55;10.70;1.00
11577;DHT22;5844;51.496;6.788;2024-03-29T08:38:21;10.70;1.00
11577;DHT22;5844;51.496;6.788;2024-03-29T08:40:47;10.80;1.00
11577;DHT22;5844;51.496;6.788;2024-03-29T08:43:14;10.50;1.00
11577;DHT22;5844;51.496;6.788;2024-03-29T08:45:46;10.40;1.00
11577;DHT22;5844;51.496;6.788;2024-03-29T08:48:12;10.20;1.00
11577;DHT22;5844;51.496;6.788;2024-03-29T08:50:37;10.20;1.00
11577;DHT22;5844;51.496;6.788;2024-03-29T08:53:04;10.10;1.00
11577;DHT22;5844;51.496;6.788;2024-03-29T08:55:30;10.10;1.00
11577;DHT22;5844;51.496;6.788;2024-03-29T08:58:00;10.10;1.00
11577;DHT22;5844;51.496;6.788;2024-03-29T09:00:27;10.00;1.00
11577;DHT22;5844;51.496;6.788;2024-03-29T09:02:53;10.00;1.00
11577;DHT22;5844;51.496;6.788;2024-03-29T09:05:19;10.00;1.00
11577;DHT22;5844;51.496;6.788;2024-03-29T09:07:44;9.90;1.00
11577;DHT22;5844;51.496;6.788;2024-03-29T09:10:13;9.90;1.00
11577;DHT22;5844;51.496;6.788;2024-03-29T09:12:39;10.00;1.00
11577;DHT22;5844;51.496;6.788;2024-03-29T09:15:06;9.90;1.00
11577;DHT22;5844;51.496;6.788;2024-03-29T09:17:34;9.70;1.00
11577;DHT22;5844;51.496;6.788;2024-03-29T09:20:00;9.70;1.00
11577;DHT22;5844;51.496;6.788;2024-03-29T09:22:26;9.70;1.00
11577;DHT22;5844;51.496;6.788;2024-03-29T09:24:52;9.80;1.00
11577;DHT22;5844;51.496;6.788;2024-03-29T09:27:17;9.90;1.00
11577;DHT22;5844;51.496;6.788;2024-03-29T09:29:43;10.10;1.00
11577;DHT22;5844;51.496;6.788;2024-03-29T09:32:12;10.30;1.00
11577;DHT22;5844;51.496;6.788;2024-03-29T09:34:38;10.30;1.00
11577;DHT22;5844;51.496;6.788;2024-03-29T09:37:03;10.30;1.00
11577;DHT22;5844;51.496;6.788;2024-03-29T09:39:29;10.30;1.00
11577;DHT22;5844;51.496;6.788;2024-03-29T09:41:57;10.30;1.00
11577;DHT22;5844;51.496;6.788;2024-03-29T09:44:26;10.40;1.00
11577;DHT22;5844;51.496;6.788;2024-03-29T09:46:56;10.40;1.00
11577;DHT22;5844;51.496;6.788;2024-03-29T09:49:22;10.40;1.00
11577;DHT22;5844;51.496;6.788;2024-03-29T09:51:49;10.40;1.00
11577;DHT22;5844;51.496;6.788;2024-03-29T09:54:15;10.40;1.00
11577;DHT22;5844;51.496;6.788;2024-03-29T09:56:41;10.60;1.00
11577;DHT22;5844;51.496;6.788;2024-03-29T09:59:07;10.80;1.00
11577;DHT22;5844;51.496;6.788;2024-03-29T10:01:35;10.90;1.00
11577;DHT22;5844;51.496;6.788;2024-03-29T10:04:00;11.20;1.00
11577;DHT22;5844;51.496;6.788;2024-03-29T10:06:28;11.60;1.00
11577;DHT22;5844;51.496;6.788;2024-03-29T10:08:56;11.50;1.00
11577;DHT22;5844;51.496;6.788;2024-03-29T10:11:23;11.60;1.00
11577;DHT22;5844;51.496;6.788;2024-03-29T10:13:50;11.60;1.00
11577;DHT22;5844;51.496;6.788;2024-03-29T10:16:18;11.60;1.00
11577;DHT22;5844;51.496;6.788;2024-03-29T10:18:47;11.60;1.00
11577;DHT22;5844;51.496;6.788;2024-03-29T10:21:14;11.80;1.00
11577;DHT22;5844;51.496;6.788;2024-03-29T10:23:40;11.80;1.00
11577;DHT22;5844;51.496;6.788;2024-03-29T10:26:06;11.90;1.00
11577;DHT22;5844;51.496;6.788;2024-03-29T10:28:35;12.10;1.00
11577;DHT22;5844;51.496;6.788;2024-03-29T10:31:03;12.30;1.00
11577;DHT22;5844;51.496;6.788;2024-03-29T10:33:30;12.40;1.00
11577;DHT22;5844;51.496;6.788;2024-03-29T10:35:56;12.40;1.00
11577;DHT22;5844;51.496;6.788;2024-03-29T10:38:24;12.40;1.00
11577;DHT22;5844;51.496;6.788;2024-03-29T10:40:52;12.50;1.00
11577;DHT22;5844;51.496;6.788;2024-03-29T10:43:19;12.30;1.00
11577;DHT22;5844;51.496;6.788;2024-03-29T10:45:48;12.40;1.00
11577;DHT22;5844;51.496;6.788;2024-03-29T10:48:16;12.40;1.00
11577;DHT22;5844;51.496;6.788;2024-03-29T10:50:44;12.30;1.00
11577;DHT22;5844;51.496;6.788;2024-03-29T10:53:12;12.30;1.00
11577;DHT22;5844;51.496;6.788;2024-03-29T10:55:38;12.40;1.00
11577;DHT22;5844;51.496;6.788;2024-03-29T10:58:05;12.40;1.00
11577;DHT22;5844;51.496;6.788;2024-03-29T11:00:38;12.50;1.00
11577;DHT22;5844;51.496;6.788;2024-03-29T11:03:32;12.70;1.00
11577;DHT22;5844;51.496;6.788;2024-03-29T11:06:05;12.80;1.00
11577;DHT22;5844;51.496;6.788;2024-03-29T11:08:33;12.90;1.00
11577;DHT22;5844;51.496;6.788;2024-03-29T11:11:02;13.10;1.00
11577;DHT22;5844;51.496;6.788;2024-03-29T11:13:53;13.20;1.00
11577;DHT22;5844;51.496;6.788;2024-03-29T11:16:19;13.20;1.00
11577;DHT22;5844;51.496;6.788;2024-03-29T11:18:46;13.30;1.00
11577;DHT22;5844;51.496;6.788;2024-03-29T11:21:13;13.50;1.00
11577;DHT22;5844;51.496;6.788;2024-03-29T11:23:48;13.70;1.00
11577;DHT22;5844;51.496;6.788;2024-03-29T11:26:14;13.80;1.00
11577;DHT22;5844;51.496;6.788;2024-03-29T11:28:40;14.50;1.00
11577;DHT22;5844;51.496;6.788;2024-03-29T11:31:09;14.90;1.00
11577;DHT22;5844;51.496;6.788;2024-03-29T11:36:15;15.70;1.00
11577;DHT22;5844;51.496;6.788;2024-03-29T11:38:45;15.40;1.00
11577;DHT22;5844;51.496;6.788;2024-03-29T11:41:21;15.40;1.00
11577;DHT22;5844;51.496;6.788;2024-03-29T11:43:49;15.60;1.00
11577;DHT22;5844;51.496;6.788;2024-03-29T11:46:15;16.40;1.00
11577;DHT22;5844;51.496;6.788;2024-03-29T11:48:41;17.20;1.00
11577;DHT22;5844;51.496;6.788;2024-03-29T11:51:08;17.50;1.00
11577;DHT22;5844;51.496;6.788;2024-03-29T11:53:36;16.90;1.00
11577;DHT22;5844;51.496;6.788;2024-03-29T11:56:03;16.60;1.00
11577;DHT22;5844;51.496;6.788;2024-03-29T11:58:30;16.50;1.00
11577;DHT22;5844;51.496;6.788;2024-03-29T12:00:57;16.30;1.00
11577;DHT22;5844;51.496;6.788;2024-03-29T12:03:25;15.90;1.00
11577;DHT22;5844;51.496;6.788;2024-03-29T12:05:52;15.80;1.00
11577;DHT22;5844;51.496;6.788;2024-03-29T12:08:32;15.70;1.00
11577;DHT22;5844;51.496;6.788;2024-03-29T12:10:59;15.60;1.00
11577;DHT22;5844;51.496;6.788;2024-03-29T12:13:25;15.60;1.00
11577;DHT22;5844;51.496;6.788;2024-03-29T12:15:51;15.40;1.00
11577;DHT22;5844;51.496;6.788;2024-03-29T12:18:20;15.60;1.00
11577;DHT22;5844;51.496;6.788;2024-03-29T12:20:45;15.50;1.00
11577;DHT22;5844;51.496;6.788;2024-03-29T12:23:16;15.30;1.00
11577;DHT22;5844;51.496;6.788;2024-03-29T12:25:43;15.30;1.00
11577;DHT22;5844;51.496;6.788;2024-03-29T12:28:13;15.50;1.00
11577;DHT22;5844;51.496;6.788;2024-03-29T12:30:47;15.60;1.00
11577;DHT22;5844;51.496;6.788;2024-03-29T12:33:15;15.60;1.00
11577;DHT22;5844;51.496;6.788;2024-03-29T12:35:45;15.50;1.00
11577;DHT22;5844;51.496;6.788;2024-03-29T12:38:12;15.50;1.00
11577;DHT22;5844;51.496;6.788;2024-03-29T12:40:45;15.50;1.00
11577;DHT22;5844;51.496;6.788;2024-03-29T12:43:21;15.50;1.00
11577;DHT22;5844;51.496;6.788;2024-03-29T12:45:57;15.40;1.00
11577;DHT22;5844;51.496;6.788;2024-03-29T12:48:22;15.60;1.00
11577;DHT22;5844;51.496;6.788;2024-03-29T12:50:49;15.80;1.00
11577;DHT22;5844;51.496;6.788;2024-03-29T12:53:16;16.00;1.00
11577;DHT22;5844;51.496;6.788;2024-03-29T12:55:44;16.00;1.00
11577;DHT22;5844;51.496;6.788;2024-03-29T12:58:15;16.00;1.00
11577;DHT22;5844;51.496;6.788;2024-03-29T13:00:43;15.90;1.00
11577;DHT22;5844;51.496;6.788;2024-03-29T13:03:09;16.40;1.00
11577;DHT22;5844;51.496;6.788;2024-03-29T13:05:36;17.40;1.00
11577;DHT22;5844;51.496;6.788;2024-03-29T13:08:06;18.20;1.00
11577;DHT22;5844;51.496;6.788;2024-03-29T13:10:34;18.20;1.00
11577;DHT22;5844;51.496;6.788;2024-03-29T13:13:00;18.60;1.00
11577;DHT22;5844;51.496;6.788;2024-03-29T13:15:27;18.50;1.00
11577;DHT22;5844;51.496;6.788;2024-03-29T13:17:54;18.20;1.00
11577;DHT22;5844;51.496;6.788;2024-03-29T13:20:22;17.90;1.00
11577;DHT22;5844;51.496;6.788;2024-03-29T13:22:48;18.40;1.00
11577;DHT22;5844;51.496;6.788;2024-03-29T13:25:19;17.70;1.00
11577;DHT22;5844;51.496;6.788;2024-03-29T13:27:47;17.00;1.00
11577;DHT22;5844;51.496;6.788;2024-03-29T13:30:14;16.60;1.00
11577;DHT22;5844;51.496;6.788;2024-03-29T13:32:41;16.40;1.00
11577;DHT22;5844;51.496;6.788;2024-03-29T13:35:08;16.40;1.00
11577;DHT22;5844;51.496;6.788;2024-03-29T13:37:41;16.50;1.00
11577;DHT22;5844;51.496;6.788;2024-03-29T13:40:09;16.90;1.00
11577;DHT22;5844;51.496;6.788;2024-03-29T13:42:36;16.80;1.00
11577;DHT22;5844;51.496;6.788;2024-03-29T13:45:02;16.70;1.00
11577;DHT22;5844;51.496;6.788;2024-03-29T13:47:29;16.60;1.00
11577;DHT22;5844;51.496;6.788;2024-03-29T13:49:55;16.30;1.00
11577;DHT22;5844;51.496;6.788;2024-03-29T13:52:22;16.10;1.00
11577;DHT22;5844;51.496;6.788;2024-03-29T13:54:48;15.80;1.00
11577;DHT22;5844;51.496;6.788;2024-03-29T13:57:17;15.70;1.00
11577;DHT22;5844;51.496;6.788;2024-03-29T13:59:45;15.60;1.00
11577;DHT22;5844;51.496;6.788;2024-03-29T14:02:12;15.60;1.00
11577;DHT22;5844;51.496;6.788;2024-03-29T14:04:39;15.70;1.00
11577;DHT22;5844;51.496;6.788;2024-03-29T14:07:05;15.60;1.00
11577;DHT22;5844;51.496;6.788;2024-03-29T14:09:35;15.60;1.00
11577;DHT22;5844;51.496;6.788;2024-03-29T14:12:02;16.20;1.00
11577;DHT22;5844;51.496;6.788;2024-03-29T14:14:29;17.20;1.00
11577;DHT22;5844;51.496;6.788;2024-03-29T14:16:55;17.40;1.00
11577;DHT22;5844;51.496;6.788;2024-03-29T14:19:20;17.10;1.00
11577;DHT22;5844;51.496;6.788;2024-03-29T14:21:46;17.00;1.00
11577;DHT22;5844;51.496;6.788;2024-03-29T14:24:11;17.20;1.00
11577;DHT22;5844;51.496;6.788;2024-03-29T14:26:37;17.40;1.00
11577;DHT22;5844;51.496;6.788;2024-03-29T14:29:04;17.60;1.00
11577;DHT22;5844;51.496;6.788;2024-03-29T14:31:29;17.60;1.00
11577;DHT22;5844;51.496;6.788;2024-03-29T14:33:55;17.50;1.00
11577;DHT22;5844;51.496;6.788;2024-03-29T14:36:21;17.40;1.00
11577;DHT22;5844;51.496;6.788;2024-03-29T14:38:46;17.00;1.00
11577;DHT22;5844;51.496;6.788;2024-03-29T14:41:13;17.00;1.00
11577;DHT22;5844;51.496;6.788;2024-03-29T14:43:39;17.00;1.00
11577;DHT22;5844;51.496;6.788;2024-03-29T14:46:04;16.80;1.00
11577;DHT22;5844;51.496;6.788;2024-03-29T14:48:30;16.60;1.00
11577;DHT22;5844;51.496;6.788;2024-03-29T14:50:55;16.70;1.00
11577;DHT22;5844;51.496;6.788;2024-03-29T14:53:23;16.80;1.00
11577;DHT22;5844;51.496;6.788;2024-03-29T14:55:48;16.70;1.00
11577;DHT22;5844;51.496;6.788;2024-03-29T14:58:14;17.10;1.00
11577;DHT22;5844;51.496;6.788;2024-03-29T15:00:40;17.60;1.00
11577;DHT22;5844;51.496;6.788;2024-03-29T15:03:05;17.50;1.00
11577;DHT22;5844;51.496;6.788;2024-03-29T15:05:32;17.70;1.00
11577;DHT22;5844;51.496;6.788;2024-03-29T15:07:59;17.50;1.00
11577;DHT22;5844;51.496;6.788;2024-03-29T15:10:24;17.70;1.00
11577;DHT22;5844;51.496;6.788;2024-03-29T15:12:51;18.00;1.00
11577;DHT22;5844;51.496;6.788;2024-03-29T15:15:17;17.70;1.00
11577;DHT22;5844;51.496;6.788;2024-03-29T15:17:43;17.30;1.00
11577;DHT22;5844;51.496;6.788;2024-03-29T15:20:09;17.00;1.00
11577;DHT22;5844;51.496;6.788;2024-03-29T15:22:38;17.10;1.00
11577;DHT22;5844;51.496;6.788;2024-03-29T15:25:06;17.20;1.00
11577;DHT22;5844;51.496;6.788;2024-03-29T15:27:32;17.00;1.00
11577;DHT22;5844;51.496;6.788;2024-03-29T15:30:20;16.90;1.00
11577;DHT22;5844;51.496;6.788;2024-03-29T15:32:46;16.90;1.00
11577;DHT22;5844;51.496;6.788;2024-03-29T15:35:11;16.70;1.00
11577;DHT22;5844;51.496;6.788;2024-03-29T15:37:37;17.40;1.00
11577;DHT22;5844;51.496;6.788;2024-03-29T15:40:03;17.80;1.00
11577;DHT22;5844;51.496;6.788;2024-03-29T15:42:30;17.70;1.00
11577;DHT22;5844;51.496;6.788;2024-03-29T15:44:55;17.40;1.00
11577;DHT22;5844;51.496;6.788;2024-03-29T15:47:21;17.20;1.00
11577;DHT22;5844;51.496;6.788;2024-03-29T15:49:47;17.10;1.00
11577;DHT22;5844;51.496;6.788;2024-03-29T15:52:13;17.00;1.00
11577;DHT22;5844;51.496;6.788;2024-03-29T15:54:39;16.80;1.00
11577;DHT22;5844;51.496;6.788;2024-03-29T15:57:04;16.60;1.00
11577;DHT22;5844;51.496;6.788;2024-03-29T15:59:30;16.30;1.00
11577;DHT22;5844;51.496;6.788;2024-03-29T16:01:56;16.40;1.00
11577;DHT22;5844;51.496;6.788;2024-03-29T16:04:21;16.10;1.00
11577;DHT22;5844;51.496;6.788;2024-03-29T16:06:47;16.10;1.00
11577;DHT22;5844;51.496;6.788;2024-03-29T16:09:13;16.00;1.00
11577;DHT22;5844;51.496;6.788;2024-03-29T16:11:39;16.00;1.00